Time;durP1;ratioP1;P1;durP2;ratioP2;P2;SDS_P1;SDS_P2;PMS_P1;PMS_P2;Temp;Humidity;BMP_temperature;BMP_pressure;BME280_temperature;BME280_humidity;BME280_pressure;Samples;Min_cycle;Max_cycle;Signal;HPM_P1;HPM_P2
2022/01/24 00:28:47;;;;;;;23.98;10.08;;;;;;;1.99;83.73;100777.41;4257603;82;44502;-76
2022/01/24 00:34:48;;;;;;;24.23;10.08;;;;;;;0.94;86.93;100810.34;4286664;81;44460;-76
2022/01/24 00:40:50;;;;;;;27.10;10.45;;;;;;;0.69;87.99;100812.80;4309172;81;43421;-77
2022/01/24 00:47:06;;;;;;;21.25;9.65;;;;;;;0.79;91.46;100804.95;4307267;81;43963;-75
2022/01/24 00:53:18;;;;;;;20.75;10.10;;;;;;;0.30;96.03;100806.55;4273527;81;44501;-75
2022/01/24 00:59:15;;;;;;;23.47;10.38;;;;;;;0.03;95.53;100803.79;4289542;81;28536;-75
2022/01/24 01:05:54;;;;;;;26.87;11.68;;;;;;;-0.02;96.61;100806.78;4298439;81;43460;-75
2022/01/24 01:24:00;;;;;;;22.10;9.55;;;;;;;-0.11;97.58;100804.84;4304596;81;44018;-75
2022/01/24 01:30:10;;;;;;;21.90;10.35;;;;;;;-0.33;100.00;100814.88;4282886;81;44527;-77
2022/01/24 01:36:26;;;;;;;;;;;;;;;-0.34;100.00;100806.13;4298781;81;28500;-76
2022/01/24 01:55:42;;;;;;;23.65;10.48;;;;;;;-149.40;100.00;119126.13;4288035;81;44415;-76
2022/01/24 17:39:19;;;;;;;32.83;15.18;;;;;;;2.07;78.18;100796.64;4610090;75;63488;-75
2022/01/24 17:45:21;;;;;;;32.85;15.28;;;;;;;2.33;79.89;100794.86;4527767;76;44097;-74
2022/01/24 17:51:22;;;;;;;31.37;15.23;;;;;;;2.35;85.44;100787.12;4443014;78;44124;-74
2022/01/24 17:57:23;;;;;;;38.53;16.90;;;;;;;2.60;79.62;100779.67;4469558;78;44494;-74
2022/01/24 18:03:24;;;;;;;36.60;15.45;;;;;;;2.46;84.31;100782.69;4514866;77;44493;-77
2022/01/24 18:09:27;;;;;;;39.53;17.27;;;;;;;2.56;80.22;100784.88;4500705;77;44459;-73
2022/01/24 18:15:28;;;;;;;36.00;16.52;;;;;;;2.59;79.44;100787.76;4493355;77;44460;-76
2022/01/24 18:21:29;;;;;;;39.98;17.60;;;;;;;2.60;79.32;100777.48;4529817;77;44447;-74
2022/01/24 18:27:31;;;;;;;49.70;20.35;;;;;;;2.53;82.36;100773.69;4522104;77;44193;-76
2022/01/24 18:33:32;;;;;;;52.88;23.12;;;;;;;2.50;79.07;100784.94;4526453;77;44117;-74
2022/01/24 18:39:35;;;;;;;63.50;26.65;;;;;;;2.55;75.09;100783.67;4480314;77;43245;-75
2022/01/24 18:45:36;;;;;;;75.15;31.60;;;;;;;2.56;74.90;100784.05;4522114;77;43694;-74
2022/01/24 18:51:37;;;;;;;73.35;32.13;;;;;;;2.49;76.67;100777.95;4520493;77;44142;-75
2022/01/24 18:57:38;;;;;;;79.70;33.75;;;;;;;2.34;78.49;100773.97;4516790;77;43093;-73
2022/01/24 19:03:42;;;;;;;79.12;32.35;;;;;;;2.40;76.84;100779.25;4511562;77;43084;-74
2022/01/24 19:09:46;;;;;;;76.47;31.90;;;;;;;2.50;80.02;100764.20;4511732;77;43671;-74
2022/01/24 19:15:48;;;;;;;72.22;29.23;;;;;;;2.58;74.67;100761.67;4521476;77;44117;-74
2022/01/24 19:28:08;;;;;;;68.83;30.23;;;;;;;2.58;73.92;100755.55;4455630;78;44196;-72
2022/01/24 19:34:09;;;;;;;74.30;31.33;;;;;;;2.56;74.84;100760.16;4460758;78;44122;-74
2022/01/24 19:40:11;;;;;;;71.30;31.25;;;;;;;2.55;76.89;100769.07;4466729;77;44117;-72
2022/01/24 19:46:12;;;;;;;78.05;32.78;;;;;;;2.60;75.74;100765.06;4468165;78;42299;-74
2022/01/24 19:52:13;;;;;;;82.05;33.38;;;;;;;2.55;79.04;100757.12;4456017;78;43033;-73
2022/01/24 19:58:22;;;;;;;73.47;33.67;;;;;;;2.69;78.70;100759.41;4451465;78;44127;-74
2022/01/24 20:04:17;;;;;;;81.53;35.58;;;;;;;2.54;80.83;100760.28;4449848;78;43414;-78
2022/01/24 20:10:18;;;;;;;90.62;37.38;;;;;;;2.55;88.18;100744.70;4455479;78;44477;-74
2022/01/24 20:16:19;;;;;;;98.78;42.10;;;;;;;2.63;81.00;100752.83;4457037;78;43808;-74
2022/01/24 20:22:20;;;;;;;99.13;42.58;;;;;;;2.55;81.85;100751.34;4398633;79;43834;-74
2022/01/24 20:28:22;;;;;;;101.05;40.33;;;;;;;2.56;81.28;100745.55;4383520;79;43621;-75
2022/01/24 20:34:24;;;;;;;95.72;39.70;;;;;;;2.43;84.81;100749.77;4437320;78;43262;-74
2022/01/24 20:40:26;;;;;;;90.10;39.45;;;;;;;2.57;80.88;100745.90;4440063;78;44445;-76
2022/01/24 20:46:27;;;;;;;92.05;38.73;;;;;;;2.54;81.71;100743.02;4402358;79;44510;-75
2022/01/24 20:59:32;;;;;;;90.32;38.98;;;;;;;2.62;81.27;100739.67;4418497;79;28541;-80
2022/01/24 21:05:34;;;;;;;86.75;35.83;;;;;;;2.62;81.27;100739.67;4531300;77;44431;-76
2022/01/24 21:11:39;;;;;;;93.70;39.93;;;;;;;2.56;86.77;100732.27;4516510;77;28596;-80
2022/01/24 21:17:41;;;;;;;89.55;38.95;;;;;;;2.70;84.22;100731.02;4467319;78;44505;-81
2022/01/24 21:23:42;;;;;;;88.42;37.05;;;;;;;2.61;87.95;100724.72;4444876;78;44449;-74
2022/01/24 21:29:44;;;;;;;95.83;39.35;;;;;;;2.72;84.46;100735.72;4456058;78;43211;-75
2022/01/24 21:35:46;;;;;;;95.87;39.27;;;;;;;2.75;83.26;100723.48;4438468;78;43200;-75
2022/01/24 21:41:49;;;;;;;106.87;42.62;;;;;;;2.68;87.07;100723.20;4396216;79;44381;-80
2022/01/24 21:47:51;;;;;;;106.43;44.80;;;;;;;2.76;83.67;100714.06;4487363;77;44299;-76
2022/01/24 21:53:52;;;;;;;114.47;45.78;;;;;;;2.79;82.84;100723.07;4460442;78;43936;-79
2022/01/24 21:59:54;;;;;;;115.08;47.05;;;;;;;2.81;81.72;100713.61;4370155;79;43825;-76
2022/01/24 22:05:55;;;;;;;114.52;45.75;;;;;;;2.61;86.77;100699.02;4400089;78;44584;-76
2022/01/24 22:11:56;;;;;;;131.05;51.65;;;;;;;2.89;84.65;100700.48;4430819;78;43447;-79
2022/01/24 22:17:58;;;;;;;120.42;49.80;;;;;;;2.73;88.08;100695.72;4446235;78;44301;-78
2022/01/24 22:23:59;;;;;;;123.47;49.70;;;;;;;2.74;86.39;100696.07;4436738;78;44626;-79
2022/01/24 22:30:00;;;;;;;120.75;50.08;;;;;;;2.70;86.77;100691.17;4394058;79;44730;-80
2022/01/24 22:36:02;;;;;;;124.27;50.55;;;;;;;2.64;88.74;100684.13;4487046;79;44645;-77
2022/01/24 22:42:03;;;;;;;127.87;48.42;;;;;;;2.86;88.26;100677.34;4470369;78;44149;-79
2022/01/24 22:48:04;;;;;;;111.92;44.98;;;;;;;2.90;87.75;100678.75;4375856;80;44707;-79
2022/01/24 22:54:05;;;;;;;117.87;46.80;;;;;;;3.03;87.16;100675.31;4487107;77;43944;-79
2022/01/24 23:00:10;;;;;;;111.12;43.45;;;;;;;3.15;86.79;100657.87;4472503;78;44461;-79
2022/01/24 23:07:51;;;;;;;103.53;42.93;;;;;;;3.15;87.36;100645.44;4461070;78;44288;-79
